sensor_id;sensor_type;location;lat;lon;timestamp;pressure;altitude;pressure_sealevel;temperature;humidity
34065;BME280;20339;49.754;20.158;2022-10-16T00:01:25;96877.55;;;12.94;69.79
34065;BME280;20339;49.754;20.158;2022-10-16T00:03:59;96877.90;;;12.92;69.96
34065;BME280;20339;49.754;20.158;2022-10-16T00:06:30;96883.36;;;12.89;70.02
34065;BME280;20339;49.754;20.158;2022-10-16T00:09:02;96878.25;;;12.86;70.10
34065;BME280;20339;49.754;20.158;2022-10-16T00:11:36;96877.60;;;12.83;70.22
34065;BME280;20339;49.754;20.158;2022-10-16T00:14:12;96874.45;;;12.79;70.44
34065;BME280;20339;49.754;20.158;2022-10-16T00:16:43;96875.16;;;12.77;70.49
34065;BME280;20339;49.754;20.158;2022-10-16T00:19:14;96880.14;;;12.75;70.67
34065;BME280;20339;49.754;20.158;2022-10-16T00:21:45;96884.73;;;12.74;70.75
34065;BME280;20339;49.754;20.158;2022-10-16T00:24:16;96883.80;;;12.75;70.99
34065;BME280;20339;49.754;20.158;2022-10-16T00:26:50;96888.23;;;12.77;70.92
34065;BME280;20339;49.754;20.158;2022-10-16T00:29:22;96888.09;;;12.77;71.06
34065;BME280;20339;49.754;20.158;2022-10-16T00:31:53;96890.08;;;12.76;71.11
34065;BME280;20339;49.754;20.158;2022-10-16T00:34:24;96889.83;;;12.75;71.33
34065;BME280;20339;49.754;20.158;2022-10-16T00:36:55;96890.10;;;12.74;71.48
34065;BME280;20339;49.754;20.158;2022-10-16T00:39:29;96888.20;;;12.77;71.55
34065;BME280;20339;49.754;20.158;2022-10-16T00:42:00;96892.63;;;12.81;71.57
34065;BME280;20339;49.754;20.158;2022-10-16T00:44:50;96893.16;;;12.85;71.51
34065;BME280;20339;49.754;20.158;2022-10-16T00:47:24;96896.23;;;12.90;71.52
34065;BME280;20339;49.754;20.158;2022-10-16T00:50:02;96898.54;;;12.92;71.46
34065;BME280;20339;49.754;20.158;2022-10-16T00:52:36;96900.43;;;12.96;71.51
34065;BME280;20339;49.754;20.158;2022-10-16T00:55:10;96902.55;;;12.97;71.49
34065;BME280;20339;49.754;20.158;2022-10-16T00:57:42;96903.55;;;13.01;71.43
34065;BME280;20339;49.754;20.158;2022-10-16T01:00:18;96904.81;;;13.05;71.51
34065;BME280;20339;49.754;20.158;2022-10-16T01:02:56;96910.79;;;13.08;71.35
34065;BME280;20339;49.754;20.158;2022-10-16T01:05:33;96912.43;;;13.11;71.40
34065;BME280;20339;49.754;20.158;2022-10-16T01:08:15;96911.66;;;13.13;71.30
34065;BME280;20339;49.754;20.158;2022-10-16T01:10:54;96915.54;;;13.13;71.28
34065;BME280;20339;49.754;20.158;2022-10-16T01:13:37;96913.16;;;13.15;71.34
34065;BME280;20339;49.754;20.158;2022-10-16T01:16:15;96920.81;;;13.16;71.31
34065;BME280;20339;49.754;20.158;2022-10-16T01:18:54;96917.58;;;13.15;71.32
34065;BME280;20339;49.754;20.158;2022-10-16T01:21:29;96916.38;;;13.14;71.38
34065;BME280;20339;49.754;20.158;2022-10-16T01:24:06;96917.89;;;13.12;71.31
34065;BME280;20339;49.754;20.158;2022-10-16T01:29:27;96918.14;;;13.18;71.56
34065;BME280;20339;49.754;20.158;2022-10-16T01:32:04;96915.46;;;13.20;71.56
34065;BME280;20339;49.754;20.158;2022-10-16T01:34:41;96914.89;;;13.24;71.51
34065;BME280;20339;49.754;20.158;2022-10-16T01:37:22;96916.76;;;13.27;71.53
34065;BME280;20339;49.754;20.158;2022-10-16T01:39:58;96917.14;;;13.30;71.46
34065;BME280;20339;49.754;20.158;2022-10-16T01:42:36;96915.70;;;13.33;71.45
34065;BME280;20339;49.754;20.158;2022-10-16T01:45:13;96917.65;;;13.39;71.33
34065;BME280;20339;49.754;20.158;2022-10-16T01:47:49;96914.65;;;13.44;71.31
34065;BME280;20339;49.754;20.158;2022-10-16T01:50:22;96919.77;;;13.47;71.19
34065;BME280;20339;49.754;20.158;2022-10-16T01:52:55;96923.88;;;13.50;71.11
34065;BME280;20339;49.754;20.158;2022-10-16T01:55:31;96927.13;;;13.57;70.92
34065;BME280;20339;49.754;20.158;2022-10-16T01:58:05;96933.20;;;13.61;70.76
34065;BME280;20339;49.754;20.158;2022-10-16T02:00:39;96932.39;;;13.62;70.79
34065;BME280;20339;49.754;20.158;2022-10-16T02:03:14;96935.00;;;13.58;70.82
34065;BME280;20339;49.754;20.158;2022-10-16T02:05:52;96937.59;;;13.57;70.68
34065;BME280;20339;49.754;20.158;2022-10-16T02:08:26;96940.18;;;13.57;70.78
34065;BME280;20339;49.754;20.158;2022-10-16T02:10:59;96942.42;;;13.57;70.80
34065;BME280;20339;49.754;20.158;2022-10-16T02:13:33;96943.48;;;13.55;70.82
34065;BME280;20339;49.754;20.158;2022-10-16T02:16:08;96945.13;;;13.47;70.84
34065;BME280;20339;49.754;20.158;2022-10-16T02:18:40;96946.71;;;13.44;70.99
34065;BME280;20339;49.754;20.158;2022-10-16T02:21:17;96947.81;;;13.42;71.11
34065;BME280;20339;49.754;20.158;2022-10-16T02:23:54;96951.38;;;13.38;71.20
34065;BME280;20339;49.754;20.158;2022-10-16T02:26:33;96950.86;;;13.32;71.41
34065;BME280;20339;49.754;20.158;2022-10-16T02:29:09;96950.10;;;13.30;71.53
34065;BME280;20339;49.754;20.158;2022-10-16T02:31:43;96947.79;;;13.28;71.57
34065;BME280;20339;49.754;20.158;2022-10-16T02:34:17;96949.09;;;13.27;71.66
34065;BME280;20339;49.754;20.158;2022-10-16T02:36:50;96950.38;;;13.26;71.75
34065;BME280;20339;49.754;20.158;2022-10-16T02:39:22;96947.16;;;13.28;71.68
34065;BME280;20339;49.754;20.158;2022-10-16T02:41:53;96950.22;;;13.29;71.67
34065;BME280;20339;49.754;20.158;2022-10-16T02:44:24;96947.20;;;13.29;71.72
34065;BME280;20339;49.754;20.158;2022-10-16T02:46:55;96947.81;;;13.26;71.73
34065;BME280;20339;49.754;20.158;2022-10-16T02:49:29;96949.23;;;13.25;71.86
34065;BME280;20339;49.754;20.158;2022-10-16T02:52:00;96946.20;;;13.23;71.90
34065;BME280;20339;49.754;20.158;2022-10-16T02:54:31;96946.66;;;13.20;72.00
34065;BME280;20339;49.754;20.158;2022-10-16T02:57:03;96948.07;;;13.17;72.18
34065;BME280;20339;49.754;20.158;2022-10-16T02:59:36;96945.15;;;13.16;72.10
34065;BME280;20339;49.754;20.158;2022-10-16T03:02:08;96946.99;;;13.18;72.17
34065;BME280;20339;49.754;20.158;2022-10-16T03:04:39;96946.09;;;13.19;72.04
34065;BME280;20339;49.754;20.158;2022-10-16T03:07:10;96947.66;;;13.20;72.03
34065;BME280;20339;49.754;20.158;2022-10-16T03:09:41;96950.16;;;13.21;72.00
34065;BME280;20339;49.754;20.158;2022-10-16T03:12:13;96952.80;;;13.23;71.90
34065;BME280;20339;49.754;20.158;2022-10-16T03:14:44;96953.46;;;13.27;71.85
34065;BME280;20339;49.754;20.158;2022-10-16T03:17:15;96954.89;;;13.31;71.70
34065;BME280;20339;49.754;20.158;2022-10-16T03:19:47;96957.30;;;13.37;71.50
34065;BME280;20339;49.754;20.158;2022-10-16T03:22:18;96954.23;;;13.40;71.34
34065;BME280;20339;49.754;20.158;2022-10-16T03:24:49;96956.16;;;13.40;71.29
34065;BME280;20339;49.754;20.158;2022-10-16T03:27:20;96962.14;;;13.42;71.14
34065;BME280;20339;49.754;20.158;2022-10-16T03:29:52;96956.05;;;13.43;71.02
34065;BME280;20339;49.754;20.158;2022-10-16T03:32:23;96961.98;;;13.42;70.87
34065;BME280;20339;49.754;20.158;2022-10-16T03:34:54;96961.26;;;13.41;70.88
34065;BME280;20339;49.754;20.158;2022-10-16T03:37:26;96964.47;;;13.40;70.84
34065;BME280;20339;49.754;20.158;2022-10-16T03:39:57;96964.33;;;13.39;70.76
34065;BME280;20339;49.754;20.158;2022-10-16T03:42:29;96964.73;;;13.40;70.75
34065;BME280;20339;49.754;20.158;2022-10-16T03:45:00;96969.04;;;13.40;70.76
34065;BME280;20339;49.754;20.158;2022-10-16T03:47:31;96974.14;;;13.36;70.71
34065;BME280;20339;49.754;20.158;2022-10-16T03:50:04;96971.45;;;13.31;70.85
34065;BME280;20339;49.754;20.158;2022-10-16T03:52:35;96980.61;;;13.26;70.95
34065;BME280;20339;49.754;20.158;2022-10-16T03:55:08;96981.98;;;13.22;71.08
34065;BME280;20339;49.754;20.158;2022-10-16T03:57:41;96988.30;;;13.19;71.10
34065;BME280;20339;49.754;20.158;2022-10-16T04:00:14;96992.09;;;13.18;71.29
34065;BME280;20339;49.754;20.158;2022-10-16T04:02:45;96993.86;;;13.16;71.28
34065;BME280;20339;49.754;20.158;2022-10-16T04:05:16;96994.52;;;13.14;71.40
34065;BME280;20339;49.754;20.158;2022-10-16T04:07:48;97000.21;;;13.15;71.39
34065;BME280;20339;49.754;20.158;2022-10-16T04:10:19;97002.10;;;13.17;71.39
34065;BME280;20339;49.754;20.158;2022-10-16T04:12:51;97006.00;;;13.16;71.32
34065;BME280;20339;49.754;20.158;2022-10-16T04:15:24;97007.36;;;13.14;71.32
34065;BME280;20339;49.754;20.158;2022-10-16T04:17:56;97014.70;;;13.14;71.33
34065;BME280;20339;49.754;20.158;2022-10-16T04:20:27;97014.77;;;13.14;71.26
34065;BME280;20339;49.754;20.158;2022-10-16T04:22:59;97010.94;;;13.13;71.25
34065;BME280;20339;49.754;20.158;2022-10-16T04:25:30;97006.42;;;13.13;71.15
34065;BME280;20339;49.754;20.158;2022-10-16T04:28:01;97009.45;;;13.13;71.08
34065;BME280;20339;49.754;20.158;2022-10-16T04:30:33;97007.70;;;13.13;71.07
34065;BME280;20339;49.754;20.158;2022-10-16T04:33:05;97006.80;;;13.12;71.06
34065;BME280;20339;49.754;20.158;2022-10-16T04:35:36;97007.00;;;13.08;71.11
34065;BME280;20339;49.754;20.158;2022-10-16T04:38:07;97012.21;;;13.09;71.18
34065;BME280;20339;49.754;20.158;2022-10-16T04:40:38;97014.88;;;13.07;71.27
34065;BME280;20339;49.754;20.158;2022-10-16T04:43:09;97011.34;;;13.05;71.23
34065;BME280;20339;49.754;20.158;2022-10-16T04:45:40;97008.63;;;13.04;71.37
34065;BME280;20339;49.754;20.158;2022-10-16T04:48:12;97013.23;;;13.02;71.42
34065;BME280;20339;49.754;20.158;2022-10-16T04:50:44;97013.45;;;12.98;71.47
34065;BME280;20339;49.754;20.158;2022-10-16T04:53:15;97016.08;;;12.97;71.58
34065;BME280;20339;49.754;20.158;2022-10-16T04:55:46;97009.43;;;12.94;71.64
34065;BME280;20339;49.754;20.158;2022-10-16T04:58:17;97011.48;;;12.92;71.71
34065;BME280;20339;49.754;20.158;2022-10-16T05:00:48;97011.11;;;12.92;71.73
34065;BME280;20339;49.754;20.158;2022-10-16T05:03:19;97018.98;;;12.92;71.77
34065;BME280;20339;49.754;20.158;2022-10-16T05:05:51;97020.20;;;12.89;71.87
34065;BME280;20339;49.754;20.158;2022-10-16T05:08:22;97026.41;;;12.85;71.98
34065;BME280;20339;49.754;20.158;2022-10-16T05:10:53;97023.41;;;12.83;72.04
34065;BME280;20339;49.754;20.158;2022-10-16T05:13:26;97030.73;;;12.81;72.13
34065;BME280;20339;49.754;20.158;2022-10-16T05:16:00;97030.09;;;12.78;72.38
34065;BME280;20339;49.754;20.158;2022-10-16T05:18:31;97033.38;;;12.79;72.51
34065;BME280;20339;49.754;20.158;2022-10-16T05:21:02;97031.94;;;12.79;72.58
34065;BME280;20339;49.754;20.158;2022-10-16T05:23:33;97034.39;;;12.78;72.69
34065;BME280;20339;49.754;20.158;2022-10-16T05:26:05;97032.84;;;12.80;72.74
34065;BME280;20339;49.754;20.158;2022-10-16T05:28:36;97029.65;;;12.82;72.78
34065;BME280;20339;49.754;20.158;2022-10-16T05:31:10;97033.83;;;12.89;72.79
34065;BME280;20339;49.754;20.158;2022-10-16T05:33:41;97034.17;;;13.15;72.65
34065;BME280;20339;49.754;20.158;2022-10-16T05:36:13;97038.86;;;13.21;72.20
34065;BME280;20339;49.754;20.158;2022-10-16T05:38:45;97038.88;;;13.29;72.22
34065;BME280;20339;49.754;20.158;2022-10-16T05:41:16;97040.58;;;13.48;71.74
34065;BME280;20339;49.754;20.158;2022-10-16T05:43:51;97045.08;;;13.86;71.47
34065;BME280;20339;49.754;20.158;2022-10-16T05:46:22;97049.64;;;14.34;70.55
34065;BME280;20339;49.754;20.158;2022-10-16T05:48:54;97051.09;;;14.67;69.57
34065;BME280;20339;49.754;20.158;2022-10-16T05:51:26;97053.39;;;14.79;68.40
34065;BME280;20339;49.754;20.158;2022-10-16T05:53:57;97057.34;;;14.64;68.24
34065;BME280;20339;49.754;20.158;2022-10-16T05:56:30;97061.77;;;14.52;68.15
34065;BME280;20339;49.754;20.158;2022-10-16T05:59:02;97062.35;;;14.44;68.09
34065;BME280;20339;49.754;20.158;2022-10-16T06:01:33;97066.33;;;14.38;68.19
34065;BME280;20339;49.754;20.158;2022-10-16T06:04:05;97070.72;;;14.26;68.29
34065;BME280;20339;49.754;20.158;2022-10-16T06:06:39;97076.84;;;14.13;68.44
34065;BME280;20339;49.754;20.158;2022-10-16T06:09:11;97073.48;;;14.10;68.67
34065;BME280;20339;49.754;20.158;2022-10-16T06:11:42;97077.20;;;14.11;68.77
34065;BME280;20339;49.754;20.158;2022-10-16T06:14:15;97078.46;;;14.11;68.75
34065;BME280;20339;49.754;20.158;2022-10-16T06:16:47;97080.82;;;14.17;68.81
34065;BME280;20339;49.754;20.158;2022-10-16T06:19:18;97078.31;;;14.21;68.65
34065;BME280;20339;49.754;20.158;2022-10-16T06:21:50;97082.77;;;14.34;68.85
34065;BME280;20339;49.754;20.158;2022-10-16T06:24:21;97086.29;;;14.82;68.24
34065;BME280;20339;49.754;20.158;2022-10-16T06:26:53;97087.79;;;15.48;67.28
34065;BME280;20339;49.754;20.158;2022-10-16T06:29:24;97086.50;;;16.03;66.02
34065;BME280;20339;49.754;20.158;2022-10-16T06:31:57;97090.88;;;16.35;64.80
34065;BME280;20339;49.754;20.158;2022-10-16T06:34:29;97092.73;;;16.26;63.76
34065;BME280;20339;49.754;20.158;2022-10-16T06:37:00;97100.61;;;16.01;63.41
34065;BME280;20339;49.754;20.158;2022-10-16T06:39:31;97107.02;;;15.81;63.58
34065;BME280;20339;49.754;20.158;2022-10-16T06:42:03;97117.47;;;15.72;63.95
34065;BME280;20339;49.754;20.158;2022-10-16T06:44:37;97113.50;;;15.86;64.09
34065;BME280;20339;49.754;20.158;2022-10-16T06:47:09;97116.95;;;16.17;63.71
34065;BME280;20339;49.754;20.158;2022-10-16T06:49:40;97119.17;;;16.56;63.10
34065;BME280;20339;49.754;20.158;2022-10-16T06:52:12;97117.75;;;16.89;62.04
34065;BME280;20339;49.754;20.158;2022-10-16T06:54:43;97120.85;;;16.96;61.17
34065;BME280;20339;49.754;20.158;2022-10-16T06:57:14;97128.72;;;17.25;60.85
34065;BME280;20339;49.754;20.158;2022-10-16T06:59:45;97137.95;;;17.55;59.66
34065;BME280;20339;49.754;20.158;2022-10-16T07:02:16;97139.20;;;17.90;59.04
34065;BME280;20339;49.754;20.158;2022-10-16T07:04:48;97145.89;;;17.87;58.41
34065;BME280;20339;49.754;20.158;2022-10-16T07:07:19;97148.10;;;17.87;58.73
34065;BME280;20339;49.754;20.158;2022-10-16T07:09:50;97151.20;;;18.31;58.25
34065;BME280;20339;49.754;20.158;2022-10-16T07:12:22;97157.73;;;18.46;57.16
34065;BME280;20339;49.754;20.158;2022-10-16T07:14:53;97155.20;;;18.16;57.51
34065;BME280;20339;49.754;20.158;2022-10-16T07:17:25;97160.51;;;17.92;57.85
34065;BME280;20339;49.754;20.158;2022-10-16T07:19:56;97157.33;;;17.48;57.93
34065;BME280;20339;49.754;20.158;2022-10-16T07:22:29;97160.95;;;17.08;59.00
34065;BME280;20339;49.754;20.158;2022-10-16T07:25:06;97162.04;;;17.18;58.95
34065;BME280;20339;49.754;20.158;2022-10-16T07:27:38;97164.75;;;16.97;59.32
34065;BME280;20339;49.754;20.158;2022-10-16T07:30:11;97163.06;;;16.81;59.48
34065;BME280;20339;49.754;20.158;2022-10-16T07:32:43;97164.50;;;16.66;60.31
34065;BME280;20339;49.754;20.158;2022-10-16T07:35:15;97162.40;;;16.67;60.51
34065;BME280;20339;49.754;20.158;2022-10-16T07:37:47;97159.04;;;16.79;60.86
34065;BME280;20339;49.754;20.158;2022-10-16T07:40:19;97158.50;;;18.12;60.25
34065;BME280;20339;49.754;20.158;2022-10-16T07:42:50;97156.27;;;19.66;57.10
34065;BME280;20339;49.754;20.158;2022-10-16T07:45:24;97154.46;;;20.95;55.62
34065;BME280;20339;49.754;20.158;2022-10-16T07:47:56;97161.20;;;22.10;53.30
34065;BME280;20339;49.754;20.158;2022-10-16T07:50:28;97155.24;;;22.64;50.70
34065;BME280;20339;49.754;20.158;2022-10-16T07:53:00;97154.80;;;22.65;48.47
34065;BME280;20339;49.754;20.158;2022-10-16T07:55:31;97158.55;;;21.82;48.28
34065;BME280;20339;49.754;20.158;2022-10-16T07:58:03;97161.22;;;21.53;49.27
34065;BME280;20339;49.754;20.158;2022-10-16T08:00:35;97162.80;;;21.24;49.44
34065;BME280;20339;49.754;20.158;2022-10-16T08:03:07;97165.82;;;20.81;49.66
34065;BME280;20339;49.754;20.158;2022-10-16T08:05:39;97167.02;;;20.22;49.69
34065;BME280;20339;49.754;20.158;2022-10-16T08:08:14;97165.14;;;19.90;50.75
34065;BME280;20339;49.754;20.158;2022-10-16T08:10:46;97165.10;;;19.85;51.53
34065;BME280;20339;49.754;20.158;2022-10-16T08:13:17;97160.73;;;19.66;51.43
34065;BME280;20339;49.754;20.158;2022-10-16T08:15:48;97162.70;;;19.49;52.37
34065;BME280;20339;49.754;20.158;2022-10-16T08:18:19;97165.90;;;19.33;52.43
34065;BME280;20339;49.754;20.158;2022-10-16T08:20:56;97169.47;;;19.11;52.41
34065;BME280;20339;49.754;20.158;2022-10-16T08:23:28;97166.45;;;18.96;53.28
34065;BME280;20339;49.754;20.158;2022-10-16T08:26:05;97172.85;;;18.87;53.36
34065;BME280;20339;49.754;20.158;2022-10-16T08:28:36;97172.52;;;18.84;53.77
34065;BME280;20339;49.754;20.158;2022-10-16T08:31:13;97174.08;;;18.93;54.30
34065;BME280;20339;49.754;20.158;2022-10-16T08:33:46;97178.70;;;18.98;54.28
34065;BME280;20339;49.754;20.158;2022-10-16T08:36:18;97176.40;;;18.99;54.51
34065;BME280;20339;49.754;20.158;2022-10-16T08:38:50;97185.70;;;18.93;53.78
34065;BME280;20339;49.754;20.158;2022-10-16T08:41:40;97189.82;;;18.65;53.89
34065;BME280;20339;49.754;20.158;2022-10-16T08:44:33;97193.65;;;18.32;54.41
34065;BME280;20339;49.754;20.158;2022-10-16T08:47:16;97196.42;;;18.14;54.79
34065;BME280;20339;49.754;20.158;2022-10-16T08:49:57;97192.42;;;18.03;55.11
34065;BME280;20339;49.754;20.158;2022-10-16T08:52:32;97196.48;;;17.95;55.23
34065;BME280;20339;49.754;20.158;2022-10-16T08:55:05;97199.56;;;17.91;55.48
34065;BME280;20339;49.754;20.158;2022-10-16T08:57:37;97197.26;;;17.91;55.28
34065;BME280;20339;49.754;20.158;2022-10-16T09:00:14;97198.45;;;17.88;54.98
34065;BME280;20339;49.754;20.158;2022-10-16T09:02:52;97200.44;;;17.71;54.93
34065;BME280;20339;49.754;20.158;2022-10-16T09:05:41;97196.84;;;17.54;55.64
34065;BME280;20339;49.754;20.158;2022-10-16T09:08:24;97196.58;;;17.42;55.92
34065;BME280;20339;49.754;20.158;2022-10-16T09:11:02;97197.52;;;17.47;56.09
34065;BME280;20339;49.754;20.158;2022-10-16T09:13:47;97200.30;;;17.51;56.02
34065;BME280;20339;49.754;20.158;2022-10-16T09:16:22;97203.73;;;17.49;56.21
34065;BME280;20339;49.754;20.158;2022-10-16T09:19:03;97205.60;;;17.50;55.85
34065;BME280;20339;49.754;20.158;2022-10-16T09:21:43;97214.11;;;17.36;56.29
34065;BME280;20339;49.754;20.158;2022-10-16T09:24:19;97208.65;;;17.36;56.45
34065;BME280;20339;49.754;20.158;2022-10-16T09:26:51;97213.05;;;17.34;56.76
34065;BME280;20339;49.754;20.158;2022-10-16T09:29:23;97220.09;;;17.33;56.81
34065;BME280;20339;49.754;20.158;2022-10-16T09:31:56;97218.21;;;17.30;56.98
34065;BME280;20339;49.754;20.158;2022-10-16T09:34:42;97223.48;;;17.25;57.16
34065;BME280;20339;49.754;20.158;2022-10-16T09:37:18;97218.10;;;17.26;57.40
34065;BME280;20339;49.754;20.158;2022-10-16T09:39:52;97220.38;;;17.32;57.66
34065;BME280;20339;49.754;20.158;2022-10-16T09:42:25;97216.59;;;17.35;57.48
34065;BME280;20339;49.754;20.158;2022-10-16T09:44:59;97218.44;;;17.30;57.66
34065;BME280;20339;49.754;20.158;2022-10-16T09:47:32;97219.59;;;17.29;58.08
34065;BME280;20339;49.754;20.158;2022-10-16T09:50:22;97225.34;;;17.24;58.30
34065;BME280;20339;49.754;20.158;2022-10-16T09:53:08;97223.66;;;17.18;58.53
34065;BME280;20339;49.754;20.158;2022-10-16T09:55:51;97225.98;;;17.11;58.80
34065;BME280;20339;49.754;20.158;2022-10-16T09:58:25;97226.27;;;17.04;58.98
34065;BME280;20339;49.754;20.158;2022-10-16T10:00:56;97223.05;;;17.04;59.11
34065;BME280;20339;49.754;20.158;2022-10-16T10:03:36;97215.71;;;17.06;58.98
34065;BME280;20339;49.754;20.158;2022-10-16T10:06:18;97213.02;;;17.08;59.07
34065;BME280;20339;49.754;20.158;2022-10-16T10:09:01;97211.26;;;17.19;59.07
34065;BME280;20339;49.754;20.158;2022-10-16T10:11:46;97215.34;;;17.27;58.62
34065;BME280;20339;49.754;20.158;2022-10-16T10:14:22;97213.35;;;17.29;58.46
34065;BME280;20339;49.754;20.158;2022-10-16T10:17:02;97211.96;;;17.32;58.63
34065;BME280;20339;49.754;20.158;2022-10-16T10:19:39;97214.91;;;17.34;58.70
34065;BME280;20339;49.754;20.158;2022-10-16T10:22:24;97217.70;;;17.36;58.32
34065;BME280;20339;49.754;20.158;2022-10-16T10:27:56;97216.58;;;17.44;58.01
34065;BME280;20339;49.754;20.158;2022-10-16T10:30:37;97214.84;;;17.57;57.59
34065;BME280;20339;49.754;20.158;2022-10-16T10:33:20;97214.92;;;17.67;57.65
34065;BME280;20339;49.754;20.158;2022-10-16T10:36:00;97211.39;;;17.73;56.94
34065;BME280;20339;49.754;20.158;2022-10-16T10:38:42;97216.23;;;17.79;56.27
34065;BME280;20339;49.754;20.158;2022-10-16T10:41:43;97213.94;;;17.89;56.14
34065;BME280;20339;49.754;20.158;2022-10-16T10:44:24;97210.89;;;18.01;56.16
34065;BME280;20339;49.754;20.158;2022-10-16T10:47:04;97212.73;;;18.07;55.91
34065;BME280;20339;49.754;20.158;2022-10-16T10:49:52;97211.32;;;18.13;55.59
34065;BME280;20339;49.754;20.158;2022-10-16T10:52:39;97206.77;;;18.18;55.27
34065;BME280;20339;49.754;20.158;2022-10-16T10:55:18;97212.55;;;18.27;55.21
34065;BME280;20339;49.754;20.158;2022-10-16T11:01:06;97208.31;;;18.35;54.29
34065;BME280;20339;49.754;20.158;2022-10-16T11:04:00;97202.76;;;18.39;53.99
34065;BME280;20339;49.754;20.158;2022-10-16T11:06:39;97199.94;;;18.45;53.97
34065;BME280;20339;49.754;20.158;2022-10-16T11:09:15;97205.05;;;18.48;53.51
34065;BME280;20339;49.754;20.158;2022-10-16T11:11:51;97205.49;;;18.49;52.93
34065;BME280;20339;49.754;20.158;2022-10-16T11:14:28;97202.23;;;18.52;53.14
34065;BME280;20339;49.754;20.158;2022-10-16T11:17:10;97202.36;;;18.56;53.56
34065;BME280;20339;49.754;20.158;2022-10-16T11:19:46;97204.13;;;18.55;52.85
34065;BME280;20339;49.754;20.158;2022-10-16T11:22:24;97207.70;;;18.49;52.03
34065;BME280;20339;49.754;20.158;2022-10-16T11:25:02;97208.45;;;18.50;52.23
34065;BME280;20339;49.754;20.158;2022-10-16T11:27:40;97214.42;;;18.50;52.19
34065;BME280;20339;49.754;20.158;2022-10-16T11:30:18;97215.54;;;18.51;51.98
34065;BME280;20339;49.754;20.158;2022-10-16T11:33:00;97212.16;;;18.52;52.10
34065;BME280;20339;49.754;20.158;2022-10-16T11:35:41;97214.37;;;18.50;52.07
34065;BME280;20339;49.754;20.158;2022-10-16T11:38:20;97214.65;;;18.50;52.15
34065;BME280;20339;49.754;20.158;2022-10-16T11:41:00;97211.40;;;18.49;52.48
34065;BME280;20339;49.754;20.158;2022-10-16T11:43:37;97206.25;;;18.51;52.61
34065;BME280;20339;49.754;20.158;2022-10-16T11:46:15;97207.98;;;18.50;52.61
34065;BME280;20339;49.754;20.158;2022-10-16T11:48:51;97205.90;;;18.48;52.72
34065;BME280;20339;49.754;20.158;2022-10-16T11:51:31;97206.77;;;18.46;52.92
34065;BME280;20339;49.754;20.158;2022-10-16T11:54:14;97209.30;;;18.42;52.65
34065;BME280;20339;49.754;20.158;2022-10-16T11:56:52;97207.49;;;18.35;53.21
34065;BME280;20339;49.754;20.158;2022-10-16T11:59:30;97213.34;;;18.31;53.34
34065;BME280;20339;49.754;20.158;2022-10-16T12:02:23;97214.45;;;18.33;53.39
34065;BME280;20339;49.754;20.158;2022-10-16T12:05:06;97212.67;;;18.35;53.47
34065;BME280;20339;49.754;20.158;2022-10-16T12:07:45;97215.14;;;18.35;53.50
34065;BME280;20339;49.754;20.158;2022-10-16T12:10:24;97215.39;;;18.34;53.56
34065;BME280;20339;49.754;20.158;2022-10-16T12:12:56;97211.23;;;18.29;53.34
34065;BME280;20339;49.754;20.158;2022-10-16T12:15:32;97216.88;;;18.25;53.94
34065;BME280;20339;49.754;20.158;2022-10-16T12:18:04;97216.12;;;18.20;54.00
34065;BME280;20339;49.754;20.158;2022-10-16T12:20:38;97219.52;;;18.15;54.11
34065;BME280;20339;49.754;20.158;2022-10-16T12:23:21;97219.08;;;18.11;54.47
34065;BME280;20339;49.754;20.158;2022-10-16T12:25:57;97221.13;;;18.06;54.62
34065;BME280;20339;49.754;20.158;2022-10-16T12:28:30;97224.28;;;18.00;54.91
34065;BME280;20339;49.754;20.158;2022-10-16T12:31:03;97222.41;;;17.98;54.93
34065;BME280;20339;49.754;20.158;2022-10-16T12:33:37;97224.69;;;17.97;55.22
34065;BME280;20339;49.754;20.158;2022-10-16T12:36:15;97222.33;;;17.97;55.35
34065;BME280;20339;49.754;20.158;2022-10-16T12:38:49;97227.56;;;17.98;55.68
34065;BME280;20339;49.754;20.158;2022-10-16T12:41:28;97226.70;;;18.02;56.09
34065;BME280;20339;49.754;20.158;2022-10-16T12:44:01;97228.92;;;18.07;56.05
34065;BME280;20339;49.754;20.158;2022-10-16T12:46:39;97234.42;;;18.10;56.32
34065;BME280;20339;49.754;20.158;2022-10-16T12:49:29;97235.88;;;18.16;56.45
34065;BME280;20339;49.754;20.158;2022-10-16T12:52:00;97235.44;;;18.20;56.02
34065;BME280;20339;49.754;20.158;2022-10-16T12:54:36;97230.36;;;18.25;56.14
34065;BME280;20339;49.754;20.158;2022-10-16T12:57:24;97230.52;;;18.36;56.30
34065;BME280;20339;49.754;20.158;2022-10-16T13:00:07;97231.27;;;18.51;55.70
34065;BME280;20339;49.754;20.158;2022-10-16T13:02:48;97229.20;;;18.75;55.65
34065;BME280;20339;49.754;20.158;2022-10-16T13:05:29;97229.58;;;19.08;55.19
34065;BME280;20339;49.754;20.158;2022-10-16T13:08:16;97234.41;;;19.39;54.81
34065;BME280;20339;49.754;20.158;2022-10-16T13:11:00;97236.09;;;19.58;53.69
34065;BME280;20339;49.754;20.158;2022-10-16T13:13:51;97239.52;;;19.66;53.32
34065;BME280;20339;49.754;20.158;2022-10-16T13:16:32;97240.87;;;19.73;53.00
34065;BME280;20339;49.754;20.158;2022-10-16T13:19:13;97238.11;;;19.73;52.75
34065;BME280;20339;49.754;20.158;2022-10-16T13:21:51;97240.11;;;19.53;52.75
34065;BME280;20339;49.754;20.158;2022-10-16T13:24:46;97243.39;;;19.40;53.01
34065;BME280;20339;49.754;20.158;2022-10-16T13:27:27;97242.80;;;19.30;53.34
34065;BME280;20339;49.754;20.158;2022-10-16T13:30:12;97248.59;;;19.32;53.93
34065;BME280;20339;49.754;20.158;2022-10-16T13:32:48;97257.35;;;19.47;53.87
34065;BME280;20339;49.754;20.158;2022-10-16T13:35:26;97256.32;;;19.58;53.54
34065;BME280;20339;49.754;20.158;2022-10-16T13:38:24;97258.77;;;19.53;53.48
34065;BME280;20339;49.754;20.158;2022-10-16T13:40:58;97261.18;;;19.48;53.67